sensor_id;sensor_type;location;lat;lon;timestamp;pressure;altitude;pressure_sealevel;temperature;humidity
70930;BME280;58588;48.102;19.682;2023-09-19T00:03:02;98935.28;;;23.87;96.81
70930;BME280;58588;48.102;19.682;2023-09-19T00:06:05;98929.88;;;23.67;96.04
70930;BME280;58588;48.102;19.682;2023-09-19T00:09:08;98924.66;;;23.70;96.80
70930;BME280;58588;48.102;19.682;2023-09-19T00:12:12;98926.41;;;23.90;95.68
70930;BME280;58588;48.102;19.682;2023-09-19T00:15:14;98937.44;;;23.90;95.10
70930;BME280;58588;48.102;19.682;2023-09-19T00:18:18;98931.41;;;23.88;95.75
70930;BME280;58588;48.102;19.682;2023-09-19T00:21:22;98934.34;;;23.97;96.41
70930;BME280;58588;48.102;19.682;2023-09-19T00:24:24;98938.84;;;23.88;97.04
70930;BME280;58588;48.102;19.682;2023-09-19T00:27:28;98937.63;;;23.65;99.34
70930;BME280;58588;48.102;19.682;2023-09-19T00:30:30;98941.53;;;23.93;98.18
70930;BME280;58588;48.102;19.682;2023-09-19T00:33:32;98941.50;;;23.98;97.65
70930;BME280;58588;48.102;19.682;2023-09-19T00:36:34;98948.72;;;23.94;98.97
70930;BME280;58588;48.102;19.682;2023-09-19T00:39:36;98948.88;;;24.08;98.28
70930;BME280;58588;48.102;19.682;2023-09-19T00:42:40;98938.75;;;23.98;100.00
70930;BME280;58588;48.102;19.682;2023-09-19T00:45:44;98943.00;;;24.19;97.41
70930;BME280;58588;48.102;19.682;2023-09-19T00:48:46;98950.75;;;24.46;97.96
70930;BME280;58588;48.102;19.682;2023-09-19T00:51:48;98947.03;;;24.27;97.22
70930;BME280;58588;48.102;19.682;2023-09-19T00:54:50;98940.38;;;23.99;100.00
70930;BME280;58588;48.102;19.682;2023-09-19T00:57:55;98932.06;;;23.75;100.00
70930;BME280;58588;48.102;19.682;2023-09-19T01:00:58;98917.03;;;23.52;100.00
70930;BME280;58588;48.102;19.682;2023-09-19T01:04:00;98918.06;;;23.17;100.00
70930;BME280;58588;48.102;19.682;2023-09-19T01:07:03;98916.75;;;23.04;100.00
70930;BME280;58588;48.102;19.682;2023-09-19T01:10:06;98911.81;;;22.91;100.00
70930;BME280;58588;48.102;19.682;2023-09-19T01:13:19;98918.41;;;23.00;100.00
70930;BME280;58588;48.102;19.682;2023-09-19T01:16:32;98908.00;;;22.77;100.00
70930;BME280;58588;48.102;19.682;2023-09-19T01:20:03;98898.13;;;22.76;100.00
70930;BME280;58588;48.102;19.682;2023-09-19T01:23:16;98910.75;;;22.82;100.00
70930;BME280;58588;48.102;19.682;2023-09-19T01:26:30;98906.91;;;22.78;100.00
70930;BME280;58588;48.102;19.682;2023-09-19T01:29:43;98899.44;;;22.99;100.00
70930;BME280;58588;48.102;19.682;2023-09-19T01:32:49;98897.50;;;23.04;100.00
70930;BME280;58588;48.102;19.682;2023-09-19T01:35:52;98894.88;;;23.33;100.00
70930;BME280;58588;48.102;19.682;2023-09-19T01:38:58;98888.00;;;23.26;100.00
70930;BME280;58588;48.102;19.682;2023-09-19T01:42:10;98885.13;;;23.51;100.00
70930;BME280;58588;48.102;19.682;2023-09-19T01:45:20;98883.34;;;23.70;100.00
70930;BME280;58588;48.102;19.682;2023-09-19T01:48:35;98891.78;;;23.84;100.00
70930;BME280;58588;48.102;19.682;2023-09-19T01:51:44;98890.31;;;23.92;100.00
70930;BME280;58588;48.102;19.682;2023-09-19T01:54:50;98893.13;;;23.87;100.00
70930;BME280;58588;48.102;19.682;2023-09-19T01:57:58;98890.13;;;24.17;100.00
70930;BME280;58588;48.102;19.682;2023-09-19T02:01:05;98891.22;;;24.16;100.00
70930;BME280;58588;48.102;19.682;2023-09-19T02:04:12;98904.91;;;24.26;100.00
70930;BME280;58588;48.102;19.682;2023-09-19T02:07:14;98907.31;;;24.33;100.00
70930;BME280;58588;48.102;19.682;2023-09-19T02:10:16;98902.59;;;24.04;100.00
70930;BME280;58588;48.102;19.682;2023-09-19T02:13:19;98890.13;;;23.39;100.00
70930;BME280;58588;48.102;19.682;2023-09-19T02:16:22;98898.03;;;23.95;100.00
70930;BME280;58588;48.102;19.682;2023-09-19T02:19:25;98902.03;;;23.73;100.00
70930;BME280;58588;48.102;19.682;2023-09-19T02:22:27;98903.38;;;23.32;100.00
70930;BME280;58588;48.102;19.682;2023-09-19T02:25:30;98895.78;;;23.63;100.00
70930;BME280;58588;48.102;19.682;2023-09-19T02:28:32;98901.03;;;23.59;100.00
70930;BME280;58588;48.102;19.682;2023-09-19T02:31:34;98898.94;;;23.41;100.00
70930;BME280;58588;48.102;19.682;2023-09-19T02:34:37;98895.81;;;23.58;100.00
70930;BME280;58588;48.102;19.682;2023-09-19T02:37:40;98884.56;;;23.49;100.00
70930;BME280;58588;48.102;19.682;2023-09-19T02:40:42;98883.47;;;23.50;100.00
70930;BME280;58588;48.102;19.682;2023-09-19T02:43:47;98873.75;;;23.63;100.00
70930;BME280;58588;48.102;19.682;2023-09-19T02:46:51;98882.22;;;23.76;100.00
70930;BME280;58588;48.102;19.682;2023-09-19T02:49:55;98872.44;;;23.50;100.00
70930;BME280;58588;48.102;19.682;2023-09-19T02:52:57;98873.75;;;23.63;100.00
70930;BME280;58588;48.102;19.682;2023-09-19T02:55:59;98873.25;;;23.95;100.00
70930;BME280;58588;48.102;19.682;2023-09-19T02:59:01;98864.09;;;23.70;100.00
70930;BME280;58588;48.102;19.682;2023-09-19T03:02:03;98859.47;;;23.95;100.00
70930;BME280;58588;48.102;19.682;2023-09-19T03:05:07;98861.41;;;23.94;100.00
70930;BME280;58588;48.102;19.682;2023-09-19T03:08:11;98859.00;;;23.88;100.00
70930;BME280;58588;48.102;19.682;2023-09-19T03:11:15;98861.22;;;23.81;100.00
70930;BME280;58588;48.102;19.682;2023-09-19T03:14:19;98855.16;;;23.84;100.00
70930;BME280;58588;48.102;19.682;2023-09-19T03:17:21;98858.25;;;23.77;100.00
70930;BME280;58588;48.102;19.682;2023-09-19T03:20:24;98858.28;;;23.72;100.00
70930;BME280;58588;48.102;19.682;2023-09-19T03:23:28;98845.97;;;23.64;100.00
70930;BME280;58588;48.102;19.682;2023-09-19T03:26:30;98856.09;;;23.69;100.00
70930;BME280;58588;48.102;19.682;2023-09-19T03:29:32;98855.81;;;23.75;100.00
70930;BME280;58588;48.102;19.682;2023-09-19T03:32:34;98854.22;;;23.64;100.00
70930;BME280;58588;48.102;19.682;2023-09-19T03:35:38;98844.78;;;23.75;100.00
70930;BME280;58588;48.102;19.682;2023-09-19T03:38:40;98854.50;;;23.97;100.00
70930;BME280;58588;48.102;19.682;2023-09-19T03:41:42;98848.56;;;24.14;100.00
70930;BME280;58588;48.102;19.682;2023-09-19T03:44:45;98855.53;;;24.06;100.00
70930;BME280;58588;48.102;19.682;2023-09-19T03:47:47;98835.47;;;24.00;100.00
70930;BME280;58588;48.102;19.682;2023-09-19T03:50:50;98844.84;;;23.99;100.00
70930;BME280;58588;48.102;19.682;2023-09-19T03:53:53;98833.19;;;24.08;100.00
70930;BME280;58588;48.102;19.682;2023-09-19T03:56:54;98840.03;;;24.10;100.00
70930;BME280;58588;48.102;19.682;2023-09-19T03:59:56;98839.03;;;24.01;100.00
70930;BME280;58588;48.102;19.682;2023-09-19T04:02:58;98835.34;;;24.11;100.00
70930;BME280;58588;48.102;19.682;2023-09-19T04:06:04;98845.63;;;24.05;100.00
70930;BME280;58588;48.102;19.682;2023-09-19T04:09:06;98843.53;;;24.21;100.00
70930;BME280;58588;48.102;19.682;2023-09-19T04:12:08;98849.69;;;24.42;100.00
70930;BME280;58588;48.102;19.682;2023-09-19T04:15:10;98838.78;;;23.97;100.00
70930;BME280;58588;48.102;19.682;2023-09-19T04:18:13;98838.19;;;24.06;100.00
70930;BME280;58588;48.102;19.682;2023-09-19T04:21:17;98852.25;;;23.99;100.00
70930;BME280;58588;48.102;19.682;2023-09-19T04:24:19;98849.31;;;23.90;100.00
70930;BME280;58588;48.102;19.682;2023-09-19T04:27:21;98843.56;;;23.87;100.00
70930;BME280;58588;48.102;19.682;2023-09-19T04:30:23;98851.78;;;23.92;100.00
70930;BME280;58588;48.102;19.682;2023-09-19T04:33:25;98856.44;;;23.96;100.00
70930;BME280;58588;48.102;19.682;2023-09-19T04:36:29;98852.00;;;23.66;100.00
70930;BME280;58588;48.102;19.682;2023-09-19T04:39:31;98846.88;;;23.49;100.00
70930;BME280;58588;48.102;19.682;2023-09-19T04:42:34;98859.16;;;23.67;100.00
70930;BME280;58588;48.102;19.682;2023-09-19T04:45:38;98853.22;;;23.84;100.00
70930;BME280;58588;48.102;19.682;2023-09-19T04:48:40;98860.28;;;23.95;100.00
70930;BME280;58588;48.102;19.682;2023-09-19T04:51:43;98868.31;;;23.53;100.00
70930;BME280;58588;48.102;19.682;2023-09-19T04:54:47;98871.53;;;23.70;100.00
70930;BME280;58588;48.102;19.682;2023-09-19T04:57:50;98878.59;;;23.81;100.00
70930;BME280;58588;48.102;19.682;2023-09-19T05:00:53;98874.97;;;23.46;100.00
70930;BME280;58588;48.102;19.682;2023-09-19T05:03:55;98868.94;;;22.90;100.00
70930;BME280;58588;48.102;19.682;2023-09-19T05:06:58;98881.38;;;22.67;100.00
70930;BME280;58588;48.102;19.682;2023-09-19T05:10:01;98885.41;;;23.44;100.00
70930;BME280;58588;48.102;19.682;2023-09-19T05:13:05;98882.22;;;23.76;100.00
70930;BME280;58588;48.102;19.682;2023-09-19T05:16:08;98881.88;;;23.39;100.00
70930;BME280;58588;48.102;19.682;2023-09-19T05:19:10;98886.66;;;23.23;100.00
70930;BME280;58588;48.102;19.682;2023-09-19T05:22:14;98881.53;;;23.01;100.00
70930;BME280;58588;48.102;19.682;2023-09-19T05:25:16;98884.84;;;23.03;100.00
70930;BME280;58588;48.102;19.682;2023-09-19T05:28:19;98894.25;;;23.41;100.00
70930;BME280;58588;48.102;19.682;2023-09-19T05:31:21;98897.34;;;23.74;100.00
70930;BME280;58588;48.102;19.682;2023-09-19T05:34:23;98897.13;;;23.70;100.00
70930;BME280;58588;48.102;19.682;2023-09-19T05:37:32;98896.44;;;23.89;100.00
70930;BME280;58588;48.102;19.682;2023-09-19T05:40:34;98900.47;;;23.96;100.00
70930;BME280;58588;48.102;19.682;2023-09-19T05:43:36;98900.81;;;24.24;100.00
70930;BME280;58588;48.102;19.682;2023-09-19T05:46:38;98907.22;;;23.80;100.00
70930;BME280;58588;48.102;19.682;2023-09-19T05:49:40;98900.28;;;23.88;100.00
70930;BME280;58588;48.102;19.682;2023-09-19T05:52:47;98905.06;;;23.77;100.00
70930;BME280;58588;48.102;19.682;2023-09-19T05:55:52;98894.56;;;23.40;100.00
70930;BME280;58588;48.102;19.682;2023-09-19T05:58:56;98899.75;;;23.86;100.00
70930;BME280;58588;48.102;19.682;2023-09-19T06:01:57;98902.38;;;24.01;100.00
70930;BME280;58588;48.102;19.682;2023-09-19T06:05:00;98904.59;;;24.28;100.00
70930;BME280;58588;48.102;19.682;2023-09-19T06:08:03;98910.63;;;23.67;100.00
70930;BME280;58588;48.102;19.682;2023-09-19T06:11:08;98906.22;;;23.21;100.00
70930;BME280;58588;48.102;19.682;2023-09-19T06:14:10;98914.97;;;23.29;100.00
70930;BME280;58588;48.102;19.682;2023-09-19T06:17:12;98920.81;;;23.17;100.00
70930;BME280;58588;48.102;19.682;2023-09-19T06:20:14;98919.03;;;22.66;100.00
70930;BME280;58588;48.102;19.682;2023-09-19T06:23:20;98937.19;;;22.67;100.00
70930;BME280;58588;48.102;19.682;2023-09-19T06:26:23;98930.28;;;22.80;100.00
70930;BME280;58588;48.102;19.682;2023-09-19T06:29:27;98927.81;;;22.68;100.00
70930;BME280;58588;48.102;19.682;2023-09-19T06:32:29;98930.06;;;22.61;100.00
70930;BME280;58588;48.102;19.682;2023-09-19T06:35:32;98932.50;;;22.63;100.00
70930;BME280;58588;48.102;19.682;2023-09-19T06:38:35;98923.41;;;22.73;100.00
70930;BME280;58588;48.102;19.682;2023-09-19T06:41:39;98931.63;;;22.78;100.00
70930;BME280;58588;48.102;19.682;2023-09-19T06:44:42;98932.63;;;23.12;100.00
70930;BME280;58588;48.102;19.682;2023-09-19T06:47:44;98932.41;;;23.04;100.00
70930;BME280;58588;48.102;19.682;2023-09-19T06:50:49;98935.41;;;23.67;100.00
70930;BME280;58588;48.102;19.682;2023-09-19T06:53:53;98941.63;;;23.33;100.00
70930;BME280;58588;48.102;19.682;2023-09-19T06:56:55;98941.41;;;23.14;100.00
70930;BME280;58588;48.102;19.682;2023-09-19T06:59:58;98941.25;;;23.50;100.00
70930;BME280;58588;48.102;19.682;2023-09-19T07:03:03;98934.16;;;23.39;100.00
70930;BME280;58588;48.102;19.682;2023-09-19T07:06:08;98943.28;;;23.29;100.00
70930;BME280;58588;48.102;19.682;2023-09-19T07:09:11;98956.91;;;22.95;100.00
70930;BME280;58588;48.102;19.682;2023-09-19T07:12:14;98964.06;;;22.81;100.00
70930;BME280;58588;48.102;19.682;2023-09-19T07:15:16;98958.00;;;22.94;100.00
70930;BME280;58588;48.102;19.682;2023-09-19T07:18:17;98974.22;;;23.01;100.00
70930;BME280;58588;48.102;19.682;2023-09-19T07:21:20;98970.19;;;22.32;100.00
70930;BME280;58588;48.102;19.682;2023-09-19T07:38:55;98982.53;;;22.24;100.00
70930;BME280;58588;48.102;19.682;2023-09-19T07:41:58;98973.47;;;22.49;100.00
70930;BME280;58588;48.102;19.682;2023-09-19T07:45:00;98981.44;;;22.35;100.00
70930;BME280;58588;48.102;19.682;2023-09-19T07:48:02;98997.09;;;22.14;100.00
70930;BME280;58588;48.102;19.682;2023-09-19T07:51:05;99003.41;;;22.30;100.00
70930;BME280;58588;48.102;19.682;2023-09-19T07:54:08;98990.78;;;22.44;100.00
70930;BME280;58588;48.102;19.682;2023-09-19T07:57:11;98987.75;;;22.51;100.00
70930;BME280;58588;48.102;19.682;2023-09-19T08:00:13;98991.03;;;22.68;100.00
70930;BME280;58588;48.102;19.682;2023-09-19T08:03:16;98992.16;;;22.62;100.00
70930;BME280;58588;48.102;19.682;2023-09-19T08:06:18;98990.44;;;22.82;100.00
70930;BME280;58588;48.102;19.682;2023-09-19T08:09:22;98986.13;;;22.09;100.00
70930;BME280;58588;48.102;19.682;2023-09-19T08:12:24;98981.16;;;22.16;100.00
70930;BME280;58588;48.102;19.682;2023-09-19T08:15:27;98986.38;;;22.28;100.00
70930;BME280;58588;48.102;19.682;2023-09-19T08:18:29;98977.88;;;22.35;100.00
70930;BME280;58588;48.102;19.682;2023-09-19T08:21:31;98979.53;;;22.15;100.00
70930;BME280;58588;48.102;19.682;2023-09-19T08:24:34;98977.63;;;22.26;100.00
70930;BME280;58588;48.102;19.682;2023-09-19T08:27:36;98988.00;;;22.70;100.00
70930;BME280;58588;48.102;19.682;2023-09-19T08:30:38;98980.31;;;21.96;100.00
70930;BME280;58588;48.102;19.682;2023-09-19T08:33:41;98997.34;;;22.03;100.00
70930;BME280;58588;48.102;19.682;2023-09-19T08:36:43;98996.47;;;21.77;100.00
70930;BME280;58588;48.102;19.682;2023-09-19T08:39:47;98999.28;;;22.12;100.00
70930;BME280;58588;48.102;19.682;2023-09-19T08:42:49;98992.97;;;22.17;100.00
70930;BME280;58588;48.102;19.682;2023-09-19T08:45:54;98992.91;;;22.83;100.00
70930;BME280;58588;48.102;19.682;2023-09-19T08:49:03;98996.00;;;22.61;100.00
70930;BME280;58588;48.102;19.682;2023-09-19T08:52:12;98998.47;;;22.17;100.00
70930;BME280;58588;48.102;19.682;2023-09-19T08:55:19;99006.94;;;21.90;100.00
70930;BME280;58588;48.102;19.682;2023-09-19T08:58:26;98994.91;;;22.11;100.00
70930;BME280;58588;48.102;19.682;2023-09-19T09:01:31;98997.09;;;22.40;100.00
70930;BME280;58588;48.102;19.682;2023-09-19T09:04:33;99006.16;;;22.30;100.00
70930;BME280;58588;48.102;19.682;2023-09-19T09:07:36;99017.16;;;22.51;100.00
70930;BME280;58588;48.102;19.682;2023-09-19T09:10:40;99014.94;;;22.88;100.00
70930;BME280;58588;48.102;19.682;2023-09-19T09:13:42;99029.47;;;22.99;100.00
70930;BME280;58588;48.102;19.682;2023-09-19T09:16:45;99018.81;;;22.62;100.00
70930;BME280;58588;48.102;19.682;2023-09-19T09:19:49;99023.97;;;23.04;100.00
70930;BME280;58588;48.102;19.682;2023-09-19T09:22:52;99034.97;;;23.04;100.00
70930;BME280;58588;48.102;19.682;2023-09-19T09:25:58;99036.66;;;22.59;100.00
70930;BME280;58588;48.102;19.682;2023-09-19T09:29:03;99034.44;;;22.71;100.00
70930;BME280;58588;48.102;19.682;2023-09-19T09:32:16;99036.38;;;22.91;100.00
70930;BME280;58588;48.102;19.682;2023-09-19T09:35:20;99047.22;;;23.42;100.00
70930;BME280;58588;48.102;19.682;2023-09-19T09:38:23;99041.31;;;22.94;100.00
70930;BME280;58588;48.102;19.682;2023-09-19T09:41:36;99054.69;;;23.27;100.00
70930;BME280;58588;48.102;19.682;2023-09-19T09:44:40;99056.69;;;22.90;100.00
70930;BME280;58588;48.102;19.682;2023-09-19T09:47:45;99061.00;;;23.32;100.00
70930;BME280;58588;48.102;19.682;2023-09-19T09:50:56;99064.41;;;22.88;100.00
70930;BME280;58588;48.102;19.682;2023-09-19T09:54:10;99070.44;;;22.95;100.00
70930;BME280;58588;48.102;19.682;2023-09-19T09:57:17;99070.16;;;22.36;100.00
70930;BME280;58588;48.102;19.682;2023-09-19T10:00:23;99079.25;;;22.87;100.00
70930;BME280;58588;48.102;19.682;2023-09-19T10:03:34;99081.72;;;22.89;100.00
70930;BME280;58588;48.102;19.682;2023-09-19T10:06:41;99082.78;;;22.78;100.00
70930;BME280;58588;48.102;19.682;2023-09-19T10:09:47;99089.94;;;22.38;100.00
70930;BME280;58588;48.102;19.682;2023-09-19T10:12:52;99091.59;;;22.54;100.00
70930;BME280;58588;48.102;19.682;2023-09-19T10:15:58;99092.16;;;22.66;100.00
70930;BME280;58588;48.102;19.682;2023-09-19T10:19:08;99093.25;;;23.11;100.00
70930;BME280;58588;48.102;19.682;2023-09-19T10:22:11;99084.97;;;22.30;100.00
70930;BME280;58588;48.102;19.682;2023-09-19T10:25:15;99089.16;;;23.04;100.00
70930;BME280;58588;48.102;19.682;2023-09-19T10:28:22;99086.38;;;22.42;100.00
70930;BME280;58588;48.102;19.682;2023-09-19T10:31:26;99085.00;;;22.60;100.00
70930;BME280;58588;48.102;19.682;2023-09-19T10:34:29;99083.59;;;23.14;100.00
70930;BME280;58588;48.102;19.682;2023-09-19T10:37:32;99075.41;;;22.99;100.00
70930;BME280;58588;48.102;19.682;2023-09-19T10:40:39;99071.16;;;23.42;100.00
70930;BME280;58588;48.102;19.682;2023-09-19T10:43:45;99061.75;;;23.58;100.00
70930;BME280;58588;48.102;19.682;2023-09-19T10:46:49;99046.47;;;23.86;100.00
70930;BME280;58588;48.102;19.682;2023-09-19T10:49:52;99044.19;;;24.03;100.00
70930;BME280;58588;48.102;19.682;2023-09-19T10:52:55;99031.09;;;24.24;100.00
70930;BME280;58588;48.102;19.682;2023-09-19T10:56:01;99031.66;;;24.61;100.00
70930;BME280;58588;48.102;19.682;2023-09-19T10:59:13;99036.31;;;24.26;100.00
70930;BME280;58588;48.102;19.682;2023-09-19T11:02:17;99045.88;;;24.39;100.00
70930;BME280;58588;48.102;19.682;2023-09-19T11:05:20;99051.41;;;23.94;100.00
70930;BME280;58588;48.102;19.682;2023-09-19T11:08:22;99054.84;;;23.66;100.00
70930;BME280;58588;48.102;19.682;2023-09-19T11:11:40;99055.84;;;23.10;100.00
70930;BME280;58588;48.102;19.682;2023-09-19T11:14:44;99060.06;;;23.67;100.00
70930;BME280;58588;48.102;19.682;2023-09-19T11:17:46;99061.03;;;23.92;100.00
70930;BME280;58588;48.102;19.682;2023-09-19T11:20:48;99056.16;;;23.84;100.00
70930;BME280;58588;48.102;19.682;2023-09-19T11:27:27;99054.94;;;24.05;100.00
70930;BME280;58588;48.102;19.682;2023-09-19T11:30:32;99056.91;;;24.34;100.00
70930;BME280;58588;48.102;19.682;2023-09-19T11:33:34;99057.13;;;24.76;100.00
70930;BME280;58588;48.102;19.682;2023-09-19T11:36:39;99059.31;;;25.14;100.00
70930;BME280;58588;48.102;19.682;2023-09-19T11:40:07;99060.91;;;25.20;100.00
70930;BME280;58588;48.102;19.682;2023-09-19T11:43:29;99061.94;;;25.48;100.00
70930;BME280;58588;48.102;19.682;2023-09-19T11:46:54;99070.97;;;25.05;100.00
70930;BME280;58588;48.102;19.682;2023-09-19T11:50:01;99076.81;;;24.65;100.00
70930;BME280;58588;48.102;19.682;2023-09-19T11:53:05;99067.72;;;24.25;100.00
70930;BME280;58588;48.102;19.682;2023-09-19T11:56:09;99078.13;;;23.94;100.00
70930;BME280;58588;48.102;19.682;2023-09-19T11:59:19;99075.72;;;24.26;100.00
70930;BME280;58588;48.102;19.682;2023-09-19T12:02:35;99085.97;;;24.60;100.00
70930;BME280;58588;48.102;19.682;2023-09-19T12:05:40;99096.59;;;23.88;100.00
70930;BME280;58588;48.102;19.682;2023-09-19T12:08:42;99106.03;;;23.72;100.00
70930;BME280;58588;48.102;19.682;2023-09-19T12:11:49;99110.63;;;23.87;100.00
70930;BME280;58588;48.102;19.682;2023-09-19T12:14:52;99110.91;;;23.85;100.00
70930;BME280;58588;48.102;19.682;2023-09-19T12:17:54;99120.97;;;24.10;100.00
70930;BME280;58588;48.102;19.682;2023-09-19T12:20:56;99124.78;;;23.55;100.00
70930;BME280;58588;48.102;19.682;2023-09-19T12:24:06;99119.59;;;23.38;100.00
70930;BME280;58588;48.102;19.682;2023-09-19T12:27:13;99143.81;;;23.31;100.00
70930;BME280;58588;48.102;19.682;2023-09-19T12:30:16;99135.88;;;22.99;100.00
70930;BME280;58588;48.102;19.682;2023-09-19T12:33:19;99129.53;;;23.34;100.00
70930;BME280;58588;48.102;19.682;2023-09-19T12:36:22;99141.66;;;22.92;100.00
70930;BME280;58588;48.102;19.682;2023-09-19T12:39:30;99142.22;;;22.94;100.00
70930;BME280;58588;48.102;19.682;2023-09-19T12:42:33;99129.53;;;22.62;100.00
70930;BME280;58588;48.102;19.682;2023-09-19T12:45:36;99133.91;;;22.53;100.00
70930;BME280;58588;48.102;19.682;2023-09-19T12:48:39;99135.53;;;22.29;100.00
70930;BME280;58588;48.102;19.682;2023-09-19T12:51:45;99145.75;;;22.79;100.00
70930;BME280;58588;48.102;19.682;2023-09-19T12:54:47;99146.03;;;22.83;100.00
70930;BME280;58588;48.102;19.682;2023-09-19T12:58:11;99151.50;;;22.52;100.00
70930;BME280;58588;48.102;19.682;2023-09-19T13:01:15;99151.00;;;23.01;100.00
70930;BME280;58588;48.102;19.682;2023-09-19T13:04:18;99159.53;;;22.89;100.00
70930;BME280;58588;48.102;19.682;2023-09-19T13:07:39;99154.56;;;23.17;100.00
70930;BME280;58588;48.102;19.682;2023-09-19T13:11:05;99167.78;;;22.94;100.00
70930;BME280;58588;48.102;19.682;2023-09-19T13:14:17;99167.47;;;22.91;100.00
70930;BME280;58588;48.102;19.682;2023-09-19T13:17:19;99164.47;;;23.28;100.00
70930;BME280;58588;48.102;19.682;2023-09-19T13:20:24;99160.84;;;23.43;100.00
70930;BME280;58588;48.102;19.682;2023-09-19T13:23:29;99162.56;;;24.14;100.00
70930;BME280;58588;48.102;19.682;2023-09-19T13:26:31;99157.13;;;24.92;100.00
70930;BME280;58588;48.102;19.682;2023-09-19T13:29:34;99165.72;;;24.86;100.00
70930;BME280;58588;48.102;19.682;2023-09-19T13:32:36;99169.22;;;26.07;100.00
70930;BME280;58588;48.102;19.682;2023-09-19T13:35:39;99160.25;;;26.58;99.51
70930;BME280;58588;48.102;19.682;2023-09-19T13:38:42;99162.97;;;26.96;96.07
70930;BME280;58588;48.102;19.682;2023-09-19T13:41:44;99167.53;;;27.52;93.46
70930;BME280;58588;48.102;19.682;2023-09-19T13:44:48;99163.56;;;27.12;93.01
70930;BME280;58588;48.102;19.682;2023-09-19T13:47:50;99162.38;;;26.99;92.90
70930;BME280;58588;48.102;19.682;2023-09-19T13:50:52;99164.03;;;27.33;92.77
70930;BME280;58588;48.102;19.682;2023-09-19T13:53:56;99166.00;;;26.62;92.71
70930;BME280;58588;48.102;19.682;2023-09-19T13:56:58;99173.19;;;26.63;93.08
70930;BME280;58588;48.102;19.682;2023-09-19T14:00:06;99167.91;;;26.80;93.41
70930;BME280;58588;48.102;19.682;2023-09-19T14:03:10;99173.47;;;27.32;90.87
70930;BME280;58588;48.102;19.682;2023-09-19T14:06:13;99178.56;;;27.25;87.75
70930;BME280;58588;48.102;19.682;2023-09-19T14:09:16;99174.00;;;27.47;87.57
70930;BME280;58588;48.102;19.682;2023-09-19T14:12:19;99183.72;;;28.19;84.00
70930;BME280;58588;48.102;19.682;2023-09-19T14:15:23;99187.81;;;28.35;82.97
70930;BME280;58588;48.102;19.682;2023-09-19T14:18:29;99191.22;;;27.77;81.74
70930;BME280;58588;48.102;19.682;2023-09-19T14:21:31;99197.72;;;27.02;85.13
70930;BME280;58588;48.102;19.682;2023-09-19T14:24:33;99201.03;;;28.24;83.66
70930;BME280;58588;48.102;19.682;2023-09-19T14:27:35;99196.94;;;28.36;83.72
70930;BME280;58588;48.102;19.682;2023-09-19T14:30:39;99192.75;;;28.38;81.59
70930;BME280;58588;48.102;19.682;2023-09-19T14:33:40;99199.22;;;29.06;80.12
70930;BME280;58588;48.102;19.682;2023-09-19T14:36:42;99193.94;;;28.46;80.18
70930;BME280;58588;48.102;19.682;2023-09-19T14:39:44;99195.63;;;27.92;81.10
70930;BME280;58588;48.102;19.682;2023-09-19T14:42:46;99201.88;;;27.37;83.95
70930;BME280;58588;48.102;19.682;2023-09-19T14:45:50;99221.16;;;28.16;81.34
70930;BME280;58588;48.102;19.682;2023-09-19T14:48:52;99218.66;;;27.60;81.88
70930;BME280;58588;48.102;19.682;2023-09-19T14:51:54;99219.91;;;28.64;79.03
70930;BME280;58588;48.102;19.682;2023-09-19T14:54:56;99212.13;;;28.88;77.73
70930;BME280;58588;48.102;19.682;2023-09-19T14:57:58;99209.09;;;30.54;73.85
70930;BME280;58588;48.102;19.682;2023-09-19T15:01:06;99208.47;;;30.08;73.67
70930;BME280;58588;48.102;19.682;2023-09-19T15:04:08;99214.41;;;30.90;69.40
70930;BME280;58588;48.102;19.682;2023-09-19T15:07:10;99212.81;;;31.70;67.28
70930;BME280;58588;48.102;19.682;2023-09-19T15:10:12;99210.28;;;33.05;64.54
70930;BME280;58588;48.102;19.682;2023-09-19T15:13:14;99199.50;;;34.18;60.93
70930;BME280;58588;48.102;19.682;2023-09-19T15:16:18;99197.78;;;34.01;58.86
70930;BME280;58588;48.102;19.682;2023-09-19T15:19:20;99173.03;;;33.00;60.64
70930;BME280;58588;48.102;19.682;2023-09-19T15:22:23;99209.34;;;33.67;59.25
70930;BME280;58588;48.102;19.682;2023-09-19T15:25:25;99202.25;;;32.82;59.64
70930;BME280;58588;48.102;19.682;2023-09-19T15:28:28;99209.44;;;32.83;60.25
70930;BME280;58588;48.102;19.682;2023-09-19T15:31:32;99206.91;;;32.48;58.83
70930;BME280;58588;48.102;19.682;2023-09-19T15:34:33;99204.38;;;31.41;62.38
70930;BME280;58588;48.102;19.682;2023-09-19T15:37:35;99209.22;;;30.31;64.20
70930;BME280;58588;48.102;19.682;2023-09-19T15:40:46;99207.25;;;29.52;66.90
70930;BME280;58588;48.102;19.682;2023-09-19T15:43:48;99205.94;;;29.27;69.70
70930;BME280;58588;48.102;19.682;2023-09-19T15:46:51;99218.00;;;28.50;70.76
70930;BME280;58588;48.102;19.682;2023-09-19T15:49:53;99221.28;;;28.11;72.12
70930;BME280;58588;48.102;19.682;2023-09-19T15:52:55;99222.81;;;27.90;73.12
70930;BME280;58588;48.102;19.682;2023-09-19T15:56:05;99224.03;;;27.37;74.81
70930;BME280;58588;48.102;19.682;2023-09-19T15:59:08;99219.56;;;27.23;76.22
70930;BME280;58588;48.102;19.682;2023-09-19T16:02:14;99218.19;;;27.06;77.62
70930;BME280;58588;48.102;19.682;2023-09-19T16:05:16;99233.94;;;26.87;80.22
70930;BME280;58588;48.102;19.682;2023-09-19T16:08:18;99234.91;;;26.58;82.20
70930;BME280;58588;48.102;19.682;2023-09-19T16:11:20;99248.19;;;26.32;81.67
70930;BME280;58588;48.102;19.682;2023-09-19T16:14:26;99248.34;;;26.22;84.91